This is the latest recevied weather packets stored in our database for station/object N4NVD-13. If no packets are shown the sender has not sent any weather packets the latest 1 day(s).
| Time | Temp. | Humidity | Pressure | Rain* | Wind** | Luminosity | Snow |
|---|---|---|---|---|---|---|---|
| 1778090918 | 20° C | 92% | 1010.1 hPa | 0 mm | - | 708 W/m² | - |
| 1778090614 | 20° C | 91% | 1010.3 hPa | 0 mm | - | 548 W/m² | - |
| 1778088796 | 18.89° C | 94% | 1010.5 hPa | 0 mm | - | 634 W/m² | - |
| 1778087584 | 17.78° C | 98% | 1011.5 hPa | 0 mm | - | 125 W/m² | - |
| 1778087282 | 18.33° C | 97% | 1011.5 hPa | 0 mm | - | 110 W/m² | - |
| 1778085767 | 19.44° C | 95% | 1011.9 hPa | 0 mm | - | 81 W/m² | - |
| 1778085464 | 19.44° C | 94% | 1011.7 hPa | 0 mm | - | 70 W/m² | - |
| 1778084855 | 21.67° C | 90% | 1011.6 hPa | 0 mm | - | 31 W/m² | - |
| 1778084553 | 26.67° C | 92% | 1011.1 hPa | 0 mm | - | 49 W/m² | - |
| 1778084250 | 26.11° C | 91% | 1011.1 hPa | 0 mm | - | 109 W/m² | - |
| 1778083947 | 26.11° C | 92% | 1011 hPa | 0 mm | - | 99 W/m² | - |
| 1778083341 | 26.11° C | 92% | 1010.7 hPa | 0 mm | - | 139 W/m² | - |
| 1778082736 | 26.67° C | 91% | 1010.3 hPa | 0 mm | - | 143 W/m² | - |
| 1778081598 | 26.11° C | 92% | 1009.8 hPa | 0 mm | - | 242 W/m² | - |
| 1778080691 | 26.11° C | 93% | 1009.8 hPa | 0 mm | - | 168 W/m² | - |
| 1778080084 | 25.56° C | 94% | 1009.8 hPa | 0 mm | - | 160 W/m² | - |
| 1778079781 | 25.56° C | 94% | 1009.9 hPa | 0 mm | - | 119 W/m² | - |
| 1778079478 | 25.56° C | 93% | 1009.5 hPa | 0 mm | - | 130 W/m² | - |
| 1778077662 | 25° C | 96% | 1009.8 hPa | 0 mm | - | 73 W/m² | - |
| 1778076453 | 25° C | 97% | 1008.8 hPa | 0 mm | - | 186 W/m² | - |
| 1778075240 | 24.44° C | 98% | 1009 hPa | 0 mm | - | 84 W/m² | - |
| 1778074936 | 24.44° C | 98% | 1009 hPa | 0 mm | - | 75 W/m² | - |
| 1778074027 | 24.44° C | 98% | 1008.8 hPa | 0 mm | - | 93 W/m² | - |
| 1778072512 | 23.89° C | 99% | 1009 hPa | 0 mm | - | 57 W/m² | - |
| 1778071605 | 23.89° C | 99% | 1009 hPa | 0 mm | - | 28 W/m² | - |
* Rain latest hour (hover to see other rain measurements)
** Current wind speed in m/s (hover to see current wind gust speed)